sensor_id;sensor_type;location;lat;lon;timestamp;P1;durP1;ratioP1;P2;durP2;ratioP2
44048;SDS011;29717;47.028;15.470;2023-08-31T00:00:34;3.22;;;1.50;;
44048;SDS011;29717;47.028;15.470;2023-08-31T00:03:01;2.40;;;1.40;;
44048;SDS011;29717;47.028;15.470;2023-08-31T00:05:29;2.25;;;1.35;;
44048;SDS011;29717;47.028;15.470;2023-08-31T00:07:56;3.03;;;1.50;;
44048;SDS011;29717;47.028;15.470;2023-08-31T00:10:22;2.00;;;1.42;;
44048;SDS011;29717;47.028;15.470;2023-08-31T00:12:50;2.65;;;1.17;;
44048;SDS011;29717;47.028;15.470;2023-08-31T00:15:16;2.83;;;1.58;;
44048;SDS011;29717;47.028;15.470;2023-08-31T00:17:43;3.25;;;1.77;;
44048;SDS011;29717;47.028;15.470;2023-08-31T00:20:10;2.30;;;1.63;;
44048;SDS011;29717;47.028;15.470;2023-08-31T00:22:39;3.15;;;1.20;;
44048;SDS011;29717;47.028;15.470;2023-08-31T00:25:07;1.80;;;1.50;;
44048;SDS011;29717;47.028;15.470;2023-08-31T00:27:34;2.97;;;1.60;;
44048;SDS011;29717;47.028;15.470;2023-08-31T00:30:03;3.72;;;1.45;;
44048;SDS011;29717;47.028;15.470;2023-08-31T00:32:32;1.98;;;1.40;;
44048;SDS011;29717;47.028;15.470;2023-08-31T00:35:00;2.28;;;1.45;;
44048;SDS011;29717;47.028;15.470;2023-08-31T00:37:28;3.92;;;1.48;;
44048;SDS011;29717;47.028;15.470;2023-08-31T00:39:57;2.55;;;1.42;;
44048;SDS011;29717;47.028;15.470;2023-08-31T00:42:23;3.40;;;1.42;;
44048;SDS011;29717;47.028;15.470;2023-08-31T00:44:51;3.22;;;1.60;;
44048;SDS011;29717;47.028;15.470;2023-08-31T00:47:18;1.75;;;1.50;;
44048;SDS011;29717;47.028;15.470;2023-08-31T00:49:45;5.07;;;1.60;;
44048;SDS011;29717;47.028;15.470;2023-08-31T00:52:13;2.88;;;1.58;;
44048;SDS011;29717;47.028;15.470;2023-08-31T00:54:40;2.85;;;1.88;;
44048;SDS011;29717;47.028;15.470;2023-08-31T00:57:09;7.20;;;2.00;;
44048;SDS011;29717;47.028;15.470;2023-08-31T00:59:36;9.50;;;1.77;;
44048;SDS011;29717;47.028;15.470;2023-08-31T01:02:04;2.50;;;1.65;;
44048;SDS011;29717;47.028;15.470;2023-08-31T01:04:36;3.72;;;1.85;;
44048;SDS011;29717;47.028;15.470;2023-08-31T01:07:08;2.90;;;2.05;;
44048;SDS011;29717;47.028;15.470;2023-08-31T01:09:40;2.25;;;2.00;;
44048;SDS011;29717;47.028;15.470;2023-08-31T01:12:11;2.05;;;1.77;;
44048;SDS011;29717;47.028;15.470;2023-08-31T01:14:42;2.47;;;1.95;;
44048;SDS011;29717;47.028;15.470;2023-08-31T01:17:08;2.90;;;2.10;;
44048;SDS011;29717;47.028;15.470;2023-08-31T01:19:40;2.70;;;2.10;;
44048;SDS011;29717;47.028;15.470;2023-08-31T01:22:11;5.45;;;1.85;;
44048;SDS011;29717;47.028;15.470;2023-08-31T01:24:39;2.72;;;1.80;;
44048;SDS011;29717;47.028;15.470;2023-08-31T01:27:07;6.15;;;2.40;;
44048;SDS011;29717;47.028;15.470;2023-08-31T01:29:34;2.63;;;2.03;;
44048;SDS011;29717;47.028;15.470;2023-08-31T01:32:00;5.03;;;2.53;;
44048;SDS011;29717;47.028;15.470;2023-08-31T01:34:31;2.50;;;2.08;;
44048;SDS011;29717;47.028;15.470;2023-08-31T01:36:58;3.35;;;2.03;;
44048;SDS011;29717;47.028;15.470;2023-08-31T01:39:29;2.92;;;2.30;;
44048;SDS011;29717;47.028;15.470;2023-08-31T01:42:02;5.45;;;2.17;;
44048;SDS011;29717;47.028;15.470;2023-08-31T01:44:30;6.95;;;2.47;;
44048;SDS011;29717;47.028;15.470;2023-08-31T01:47:05;2.88;;;2.63;;
44048;SDS011;29717;47.028;15.470;2023-08-31T01:49:35;2.22;;;2.03;;
44048;SDS011;29717;47.028;15.470;2023-08-31T01:52:02;3.17;;;2.50;;
44048;SDS011;29717;47.028;15.470;2023-08-31T01:54:29;7.03;;;2.47;;
44048;SDS011;29717;47.028;15.470;2023-08-31T01:56:55;4.38;;;2.40;;
44048;SDS011;29717;47.028;15.470;2023-08-31T01:59:23;2.72;;;2.50;;
44048;SDS011;29717;47.028;15.470;2023-08-31T02:01:50;3.55;;;2.60;;
44048;SDS011;29717;47.028;15.470;2023-08-31T02:04:17;3.67;;;2.40;;
44048;SDS011;29717;47.028;15.470;2023-08-31T02:06:44;3.10;;;2.40;;
44048;SDS011;29717;47.028;15.470;2023-08-31T02:09:10;2.80;;;2.60;;
44048;SDS011;29717;47.028;15.470;2023-08-31T02:11:40;3.33;;;2.70;;
44048;SDS011;29717;47.028;15.470;2023-08-31T02:14:07;4.18;;;2.63;;
44048;SDS011;29717;47.028;15.470;2023-08-31T02:16:35;4.80;;;2.40;;
44048;SDS011;29717;47.028;15.470;2023-08-31T02:19:02;2.80;;;2.60;;
44048;SDS011;29717;47.028;15.470;2023-08-31T02:21:28;5.43;;;2.95;;
44048;SDS011;29717;47.028;15.470;2023-08-31T02:23:55;2.70;;;2.50;;
44048;SDS011;29717;47.028;15.470;2023-08-31T02:26:22;3.03;;;2.65;;
44048;SDS011;29717;47.028;15.470;2023-08-31T02:28:48;6.43;;;3.05;;
44048;SDS011;29717;47.028;15.470;2023-08-31T02:31:16;4.95;;;3.10;;
44048;SDS011;29717;47.028;15.470;2023-08-31T02:33:44;3.17;;;2.88;;
44048;SDS011;29717;47.028;15.470;2023-08-31T02:36:11;4.00;;;2.58;;
44048;SDS011;29717;47.028;15.470;2023-08-31T02:38:38;3.33;;;2.50;;
44048;SDS011;29717;47.028;15.470;2023-08-31T02:41:04;4.18;;;2.70;;
44048;SDS011;29717;47.028;15.470;2023-08-31T02:43:31;5.97;;;3.00;;
44048;SDS011;29717;47.028;15.470;2023-08-31T02:46:01;2.92;;;2.67;;
44048;SDS011;29717;47.028;15.470;2023-08-31T02:48:27;2.80;;;2.60;;
44048;SDS011;29717;47.028;15.470;2023-08-31T02:50:57;3.42;;;2.53;;
44048;SDS011;29717;47.028;15.470;2023-08-31T02:53:26;3.08;;;2.85;;
44048;SDS011;29717;47.028;15.470;2023-08-31T02:55:52;3.10;;;2.47;;
44048;SDS011;29717;47.028;15.470;2023-08-31T02:58:19;4.53;;;3.00;;
44048;SDS011;29717;47.028;15.470;2023-08-31T03:00:46;3.92;;;2.72;;
44048;SDS011;29717;47.028;15.470;2023-08-31T03:03:13;3.15;;;2.85;;
44048;SDS011;29717;47.028;15.470;2023-08-31T03:05:40;3.90;;;3.22;;
44048;SDS011;29717;47.028;15.470;2023-08-31T03:08:08;3.78;;;2.70;;
44048;SDS011;29717;47.028;15.470;2023-08-31T03:10:35;3.05;;;2.72;;
44048;SDS011;29717;47.028;15.470;2023-08-31T03:13:02;3.28;;;2.97;;
44048;SDS011;29717;47.028;15.470;2023-08-31T03:15:29;6.65;;;2.92;;
44048;SDS011;29717;47.028;15.470;2023-08-31T03:17:55;4.05;;;3.30;;
44048;SDS011;29717;47.028;15.470;2023-08-31T03:20:22;8.40;;;3.05;;
44048;SDS011;29717;47.028;15.470;2023-08-31T03:22:49;2.90;;;2.70;;
44048;SDS011;29717;47.028;15.470;2023-08-31T03:25:17;2.95;;;2.67;;
44048;SDS011;29717;47.028;15.470;2023-08-31T03:27:44;3.45;;;3.15;;
44048;SDS011;29717;47.028;15.470;2023-08-31T03:30:11;6.05;;;3.17;;
44048;SDS011;29717;47.028;15.470;2023-08-31T03:32:38;4.05;;;3.08;;
44048;SDS011;29717;47.028;15.470;2023-08-31T03:35:05;4.90;;;3.05;;
44048;SDS011;29717;47.028;15.470;2023-08-31T03:37:32;3.35;;;3.05;;
44048;SDS011;29717;47.028;15.470;2023-08-31T03:39:59;3.20;;;3.00;;
44048;SDS011;29717;47.028;15.470;2023-08-31T03:42:27;3.58;;;3.28;;
44048;SDS011;29717;47.028;15.470;2023-08-31T03:44:54;5.57;;;3.22;;
44048;SDS011;29717;47.028;15.470;2023-08-31T03:47:20;3.30;;;3.00;;
44048;SDS011;29717;47.028;15.470;2023-08-31T03:49:47;4.72;;;3.00;;
44048;SDS011;29717;47.028;15.470;2023-08-31T03:52:13;7.13;;;2.80;;
44048;SDS011;29717;47.028;15.470;2023-08-31T03:54:40;3.75;;;3.35;;
44048;SDS011;29717;47.028;15.470;2023-08-31T03:57:07;3.85;;;3.40;;
44048;SDS011;29717;47.028;15.470;2023-08-31T03:59:35;3.75;;;3.30;;
44048;SDS011;29717;47.028;15.470;2023-08-31T04:02:02;6.60;;;3.60;;
44048;SDS011;29717;47.028;15.470;2023-08-31T04:04:29;3.53;;;3.08;;
44048;SDS011;29717;47.028;15.470;2023-08-31T04:06:55;4.15;;;3.30;;
44048;SDS011;29717;47.028;15.470;2023-08-31T04:09:22;6.07;;;3.58;;
44048;SDS011;29717;47.028;15.470;2023-08-31T04:11:49;7.05;;;3.50;;
44048;SDS011;29717;47.028;15.470;2023-08-31T04:14:16;4.15;;;3.65;;
44048;SDS011;29717;47.028;15.470;2023-08-31T04:16:45;4.07;;;3.25;;
44048;SDS011;29717;47.028;15.470;2023-08-31T04:19:14;4.13;;;3.72;;
44048;SDS011;29717;47.028;15.470;2023-08-31T04:21:41;5.22;;;3.50;;
44048;SDS011;29717;47.028;15.470;2023-08-31T04:24:08;4.50;;;4.00;;
44048;SDS011;29717;47.028;15.470;2023-08-31T04:26:35;6.07;;;4.20;;
44048;SDS011;29717;47.028;15.470;2023-08-31T04:29:01;4.03;;;3.30;;
44048;SDS011;29717;47.028;15.470;2023-08-31T04:31:30;3.83;;;3.53;;
44048;SDS011;29717;47.028;15.470;2023-08-31T04:33:59;4.43;;;3.78;;
44048;SDS011;29717;47.028;15.470;2023-08-31T04:36:25;5.18;;;3.92;;
44048;SDS011;29717;47.028;15.470;2023-08-31T04:38:52;5.43;;;4.03;;
44048;SDS011;29717;47.028;15.470;2023-08-31T04:41:19;7.18;;;4.28;;
44048;SDS011;29717;47.028;15.470;2023-08-31T04:43:46;5.90;;;3.25;;
44048;SDS011;29717;47.028;15.470;2023-08-31T04:46:14;4.75;;;3.60;;
44048;SDS011;29717;47.028;15.470;2023-08-31T04:48:40;7.13;;;3.60;;
44048;SDS011;29717;47.028;15.470;2023-08-31T04:51:09;4.43;;;3.67;;
44048;SDS011;29717;47.028;15.470;2023-08-31T04:53:52;4.00;;;3.60;;
44048;SDS011;29717;47.028;15.470;2023-08-31T04:56:19;5.32;;;3.17;;
44048;SDS011;29717;47.028;15.470;2023-08-31T04:58:46;4.50;;;3.22;;
44048;SDS011;29717;47.028;15.470;2023-08-31T05:01:12;8.57;;;3.42;;
44048;SDS011;29717;47.028;15.470;2023-08-31T05:03:39;4.00;;;3.58;;
44048;SDS011;29717;47.028;15.470;2023-08-31T05:06:06;7.10;;;3.38;;
44048;SDS011;29717;47.028;15.470;2023-08-31T05:08:34;4.07;;;3.40;;
44048;SDS011;29717;47.028;15.470;2023-08-31T05:11:01;3.15;;;2.80;;
44048;SDS011;29717;47.028;15.470;2023-08-31T05:13:28;4.15;;;3.40;;
44048;SDS011;29717;47.028;15.470;2023-08-31T05:15:55;4.75;;;3.33;;
44048;SDS011;29717;47.028;15.470;2023-08-31T05:18:21;7.50;;;3.38;;
44048;SDS011;29717;47.028;15.470;2023-08-31T05:20:48;3.53;;;3.22;;
44048;SDS011;29717;47.028;15.470;2023-08-31T05:23:15;4.55;;;3.33;;
44048;SDS011;29717;47.028;15.470;2023-08-31T05:25:43;3.92;;;3.15;;
44048;SDS011;29717;47.028;15.470;2023-08-31T05:28:10;3.97;;;3.00;;
44048;SDS011;29717;47.028;15.470;2023-08-31T05:30:36;3.75;;;3.30;;
44048;SDS011;29717;47.028;15.470;2023-08-31T05:33:03;3.45;;;3.15;;
44048;SDS011;29717;47.028;15.470;2023-08-31T05:35:30;3.63;;;3.20;;
44048;SDS011;29717;47.028;15.470;2023-08-31T05:37:57;3.92;;;2.67;;
44048;SDS011;29717;47.028;15.470;2023-08-31T05:40:24;3.92;;;3.05;;
44048;SDS011;29717;47.028;15.470;2023-08-31T05:42:52;4.32;;;2.70;;
44048;SDS011;29717;47.028;15.470;2023-08-31T05:45:18;3.22;;;2.90;;
44048;SDS011;29717;47.028;15.470;2023-08-31T05:47:45;5.20;;;3.05;;
44048;SDS011;29717;47.028;15.470;2023-08-31T05:50:12;3.20;;;2.90;;
44048;SDS011;29717;47.028;15.470;2023-08-31T05:52:38;3.63;;;3.20;;
44048;SDS011;29717;47.028;15.470;2023-08-31T05:55:09;3.05;;;2.67;;
44048;SDS011;29717;47.028;15.470;2023-08-31T05:57:36;1.88;;;1.75;;
44048;SDS011;29717;47.028;15.470;2023-08-31T06:00:05;4.47;;;2.67;;
44048;SDS011;29717;47.028;15.470;2023-08-31T06:02:33;6.15;;;2.92;;
44048;SDS011;29717;47.028;15.470;2023-08-31T06:05:01;3.10;;;2.65;;
44048;SDS011;29717;47.028;15.470;2023-08-31T06:07:29;3.38;;;3.08;;
44048;SDS011;29717;47.028;15.470;2023-08-31T06:09:56;7.22;;;3.10;;
44048;SDS011;29717;47.028;15.470;2023-08-31T06:12:23;5.20;;;2.97;;
44048;SDS011;29717;47.028;15.470;2023-08-31T06:14:49;3.38;;;2.80;;
44048;SDS011;29717;47.028;15.470;2023-08-31T06:17:17;3.10;;;2.88;;
44048;SDS011;29717;47.028;15.470;2023-08-31T06:19:44;4.05;;;2.92;;
44048;SDS011;29717;47.028;15.470;2023-08-31T06:22:11;4.20;;;3.00;;
44048;SDS011;29717;47.028;15.470;2023-08-31T06:24:38;5.47;;;3.10;;
44048;SDS011;29717;47.028;15.470;2023-08-31T06:27:05;5.28;;;2.70;;
44048;SDS011;29717;47.028;15.470;2023-08-31T06:29:31;3.55;;;2.90;;
44048;SDS011;29717;47.028;15.470;2023-08-31T06:31:58;4.65;;;3.08;;
44048;SDS011;29717;47.028;15.470;2023-08-31T06:34:26;2.97;;;2.67;;
44048;SDS011;29717;47.028;15.470;2023-08-31T06:36:53;4.03;;;3.00;;
44048;SDS011;29717;47.028;15.470;2023-08-31T06:39:19;5.20;;;2.70;;
44048;SDS011;29717;47.028;15.470;2023-08-31T06:41:46;3.03;;;2.80;;
44048;SDS011;29717;47.028;15.470;2023-08-31T06:44:14;4.88;;;2.95;;
44048;SDS011;29717;47.028;15.470;2023-08-31T06:46:42;4.03;;;3.03;;
44048;SDS011;29717;47.028;15.470;2023-08-31T06:49:08;2.90;;;2.40;;
44048;SDS011;29717;47.028;15.470;2023-08-31T06:51:37;2.78;;;2.58;;
44048;SDS011;29717;47.028;15.470;2023-08-31T06:54:03;3.15;;;2.42;;
44048;SDS011;29717;47.028;15.470;2023-08-31T06:56:31;4.82;;;3.15;;
44048;SDS011;29717;47.028;15.470;2023-08-31T06:58:58;3.90;;;2.83;;
44048;SDS011;29717;47.028;15.470;2023-08-31T07:01:24;3.25;;;2.95;;
44048;SDS011;29717;47.028;15.470;2023-08-31T07:03:52;5.78;;;3.25;;
44048;SDS011;29717;47.028;15.470;2023-08-31T07:06:18;4.80;;;2.67;;
44048;SDS011;29717;47.028;15.470;2023-08-31T07:08:46;3.03;;;2.72;;
44048;SDS011;29717;47.028;15.470;2023-08-31T07:11:14;3.10;;;2.80;;
44048;SDS011;29717;47.028;15.470;2023-08-31T07:13:41;3.92;;;2.50;;
44048;SDS011;29717;47.028;15.470;2023-08-31T07:16:08;3.33;;;2.67;;
44048;SDS011;29717;47.028;15.470;2023-08-31T07:18:34;4.93;;;3.03;;
44048;SDS011;29717;47.028;15.470;2023-08-31T07:21:01;4.70;;;2.90;;
44048;SDS011;29717;47.028;15.470;2023-08-31T07:23:30;3.33;;;2.40;;
44048;SDS011;29717;47.028;15.470;2023-08-31T07:25:58;3.50;;;2.47;;
44048;SDS011;29717;47.028;15.470;2023-08-31T07:28:25;2.92;;;2.03;;
44048;SDS011;29717;47.028;15.470;2023-08-31T07:31:00;5.65;;;2.70;;
44048;SDS011;29717;47.028;15.470;2023-08-31T07:33:26;3.17;;;1.95;;
44048;SDS011;29717;47.028;15.470;2023-08-31T07:35:53;4.20;;;2.40;;
44048;SDS011;29717;47.028;15.470;2023-08-31T07:38:20;4.93;;;2.38;;
44048;SDS011;29717;47.028;15.470;2023-08-31T07:40:46;3.28;;;2.28;;
44048;SDS011;29717;47.028;15.470;2023-08-31T07:43:14;2.40;;;2.20;;
44048;SDS011;29717;47.028;15.470;2023-08-31T07:45:41;3.90;;;1.85;;
44048;SDS011;29717;47.028;15.470;2023-08-31T07:48:08;5.15;;;2.40;;
44048;SDS011;29717;47.028;15.470;2023-08-31T07:50:34;4.80;;;2.05;;
44048;SDS011;29717;47.028;15.470;2023-08-31T07:53:01;2.97;;;1.70;;
44048;SDS011;29717;47.028;15.470;2023-08-31T07:55:28;3.17;;;1.70;;
44048;SDS011;29717;47.028;15.470;2023-08-31T07:57:55;5.43;;;1.83;;
44048;SDS011;29717;47.028;15.470;2023-08-31T08:00:23;4.45;;;1.92;;
44048;SDS011;29717;47.028;15.470;2023-08-31T08:02:49;3.97;;;1.70;;
44048;SDS011;29717;47.028;15.470;2023-08-31T08:05:16;2.67;;;1.50;;
44048;SDS011;29717;47.028;15.470;2023-08-31T08:07:43;2.15;;;1.10;;
44048;SDS011;29717;47.028;15.470;2023-08-31T08:10:11;1.70;;;1.40;;
44048;SDS011;29717;47.028;15.470;2023-08-31T08:12:38;2.03;;;1.17;;
44048;SDS011;29717;47.028;15.470;2023-08-31T08:15:06;2.30;;;1.08;;
44048;SDS011;29717;47.028;15.470;2023-08-31T08:17:34;4.40;;;1.20;;
44048;SDS011;29717;47.028;15.470;2023-08-31T08:20:01;1.50;;;1.20;;
44048;SDS011;29717;47.028;15.470;2023-08-31T08:22:28;1.30;;;1.05;;
44048;SDS011;29717;47.028;15.470;2023-08-31T08:24:55;3.20;;;1.20;;
44048;SDS011;29717;47.028;15.470;2023-08-31T08:27:21;2.60;;;1.40;;
44048;SDS011;29717;47.028;15.470;2023-08-31T08:29:48;2.03;;;1.35;;
44048;SDS011;29717;47.028;15.470;2023-08-31T08:32:15;3.53;;;1.10;;
44048;SDS011;29717;47.028;15.470;2023-08-31T08:34:43;2.05;;;1.00;;
44048;SDS011;29717;47.028;15.470;2023-08-31T08:37:10;1.48;;;1.05;;
44048;SDS011;29717;47.028;15.470;2023-08-31T08:39:37;3.67;;;1.23;;
44048;SDS011;29717;47.028;15.470;2023-08-31T08:42:04;1.10;;;1.00;;
44048;SDS011;29717;47.028;15.470;2023-08-31T08:44:31;1.70;;;1.00;;
44048;SDS011;29717;47.028;15.470;2023-08-31T08:46:58;1.65;;;1.00;;
44048;SDS011;29717;47.028;15.470;2023-08-31T08:49:25;1.55;;;1.20;;
44048;SDS011;29717;47.028;15.470;2023-08-31T08:51:54;1.73;;;1.00;;
44048;SDS011;29717;47.028;15.470;2023-08-31T08:54:21;1.58;;;0.95;;
44048;SDS011;29717;47.028;15.470;2023-08-31T08:56:48;3.60;;;1.10;;
44048;SDS011;29717;47.028;15.470;2023-08-31T08:59:15;3.40;;;0.98;;
44048;SDS011;29717;47.028;15.470;2023-08-31T09:01:41;3.03;;;1.25;;
44048;SDS011;29717;47.028;15.470;2023-08-31T09:04:08;3.83;;;1.02;;
44048;SDS011;29717;47.028;15.470;2023-08-31T09:06:35;2.40;;;1.23;;
44048;SDS011;29717;47.028;15.470;2023-08-31T09:09:03;1.58;;;0.90;;
44048;SDS011;29717;47.028;15.470;2023-08-31T09:11:30;1.00;;;0.90;;
44048;SDS011;29717;47.028;15.470;2023-08-31T09:13:58;0.80;;;0.70;;
44048;SDS011;29717;47.028;15.470;2023-08-31T09:16:25;1.45;;;0.88;;
44048;SDS011;29717;47.028;15.470;2023-08-31T09:18:53;1.23;;;0.80;;
44048;SDS011;29717;47.028;15.470;2023-08-31T09:21:20;3.80;;;0.88;;
44048;SDS011;29717;47.028;15.470;2023-08-31T09:23:47;0.80;;;0.80;;
44048;SDS011;29717;47.028;15.470;2023-08-31T09:26:15;1.70;;;0.80;;
44048;SDS011;29717;47.028;15.470;2023-08-31T09:28:43;0.90;;;0.90;;
44048;SDS011;29717;47.028;15.470;2023-08-31T09:31:11;1.17;;;0.80;;
44048;SDS011;29717;47.028;15.470;2023-08-31T09:33:37;2.20;;;0.90;;
44048;SDS011;29717;47.028;15.470;2023-08-31T09:36:06;1.77;;;0.90;;
44048;SDS011;29717;47.028;15.470;2023-08-31T09:38:33;1.00;;;0.90;;
44048;SDS011;29717;47.028;15.470;2023-08-31T09:41:07;3.63;;;0.90;;
44048;SDS011;29717;47.028;15.470;2023-08-31T09:43:35;2.72;;;1.10;;
44048;SDS011;29717;47.028;15.470;2023-08-31T09:46:02;2.97;;;1.38;;
44048;SDS011;29717;47.028;15.470;2023-08-31T09:48:30;1.67;;;0.75;;
44048;SDS011;29717;47.028;15.470;2023-08-31T09:50:56;1.95;;;1.15;;
44048;SDS011;29717;47.028;15.470;2023-08-31T09:53:24;4.13;;;1.10;;
44048;SDS011;29717;47.028;15.470;2023-08-31T09:55:51;2.70;;;1.10;;
44048;SDS011;29717;47.028;15.470;2023-08-31T09:58:19;1.60;;;1.00;;
44048;SDS011;29717;47.028;15.470;2023-08-31T10:00:48;0.95;;;0.90;;
44048;SDS011;29717;47.028;15.470;2023-08-31T10:03:15;4.07;;;1.20;;
44048;SDS011;29717;47.028;15.470;2023-08-31T10:05:41;1.35;;;1.00;;
44048;SDS011;29717;47.028;15.470;2023-08-31T10:08:09;1.45;;;1.00;;
44048;SDS011;29717;47.028;15.470;2023-08-31T10:10:36;2.88;;;1.00;;
44048;SDS011;29717;47.028;15.470;2023-08-31T10:13:04;0.73;;;0.70;;
44048;SDS011;29717;47.028;15.470;2023-08-31T10:15:31;1.17;;;1.02;;
44048;SDS011;29717;47.028;15.470;2023-08-31T10:18:00;0.95;;;0.82;;
44048;SDS011;29717;47.028;15.470;2023-08-31T10:20:28;2.50;;;0.95;;
44048;SDS011;29717;47.028;15.470;2023-08-31T10:22:57;0.90;;;0.80;;
44048;SDS011;29717;47.028;15.470;2023-08-31T10:25:23;1.67;;;0.90;;
44048;SDS011;29717;47.028;15.470;2023-08-31T10:27:51;1.85;;;1.08;;
44048;SDS011;29717;47.028;15.470;2023-08-31T10:30:25;1.40;;;1.02;;
44048;SDS011;29717;47.028;15.470;2023-08-31T10:33:05;0.68;;;0.68;;
44048;SDS011;29717;47.028;15.470;2023-08-31T10:35:50;1.05;;;0.80;;
44048;SDS011;29717;47.028;15.470;2023-08-31T10:38:22;1.70;;;0.90;;
44048;SDS011;29717;47.028;15.470;2023-08-31T10:40:59;1.80;;;0.90;;
44048;SDS011;29717;47.028;15.470;2023-08-31T10:43:26;1.10;;;1.00;;
44048;SDS011;29717;47.028;15.470;2023-08-31T10:45:53;1.35;;;0.93;;
44048;SDS011;29717;47.028;15.470;2023-08-31T10:48:21;8.25;;;1.45;;
44048;SDS011;29717;47.028;15.470;2023-08-31T10:50:48;1.40;;;1.00;;
44048;SDS011;29717;47.028;15.470;2023-08-31T10:53:14;0.80;;;0.80;;
44048;SDS011;29717;47.028;15.470;2023-08-31T10:55:49;1.30;;;1.20;;
44048;SDS011;29717;47.028;15.470;2023-08-31T10:58:16;0.85;;;0.85;;
44048;SDS011;29717;47.028;15.470;2023-08-31T11:00:46;1.17;;;0.90;;
44048;SDS011;29717;47.028;15.470;2023-08-31T11:03:13;1.20;;;1.10;;
44048;SDS011;29717;47.028;15.470;2023-08-31T11:05:51;1.25;;;1.00;;
44048;SDS011;29717;47.028;15.470;2023-08-31T11:08:21;1.13;;;1.02;;
44048;SDS011;29717;47.028;15.470;2023-08-31T11:10:47;1.67;;;1.10;;
44048;SDS011;29717;47.028;15.470;2023-08-31T11:13:15;1.17;;;1.08;;
44048;SDS011;29717;47.028;15.470;2023-08-31T11:15:44;1.85;;;1.00;;
44048;SDS011;29717;47.028;15.470;2023-08-31T11:18:12;1.05;;;0.95;;
44048;SDS011;29717;47.028;15.470;2023-08-31T11:20:40;3.45;;;0.90;;
44048;SDS011;29717;47.028;15.470;2023-08-31T11:23:08;1.20;;;1.10;;
44048;SDS011;29717;47.028;15.470;2023-08-31T11:25:35;1.27;;;0.95;;
44048;SDS011;29717;47.028;15.470;2023-08-31T11:28:03;0.93;;;0.90;;
44048;SDS011;29717;47.028;15.470;2023-08-31T11:30:30;2.53;;;1.30;;
44048;SDS011;29717;47.028;15.470;2023-08-31T11:33:01;1.15;;;1.00;;
44048;SDS011;29717;47.028;15.470;2023-08-31T11:35:31;2.83;;;1.10;;
44048;SDS011;29717;47.028;15.470;2023-08-31T11:37:58;1.88;;;1.13;;
44048;SDS011;29717;47.028;15.470;2023-08-31T11:40:27;2.38;;;1.10;;
44048;SDS011;29717;47.028;15.470;2023-08-31T11:42:53;1.05;;;0.90;;
44048;SDS011;29717;47.028;15.470;2023-08-31T11:45:20;1.52;;;1.10;;
44048;SDS011;29717;47.028;15.470;2023-08-31T11:47:48;1.10;;;1.00;;
44048;SDS011;29717;47.028;15.470;2023-08-31T11:50:16;3.05;;;1.00;;
44048;SDS011;29717;47.028;15.470;2023-08-31T11:52:44;1.00;;;1.00;;
44048;SDS011;29717;47.028;15.470;2023-08-31T11:55:11;1.30;;;1.17;;
44048;SDS011;29717;47.028;15.470;2023-08-31T11:57:39;1.35;;;1.15;;
44048;SDS011;29717;47.028;15.470;2023-08-31T12:00:08;1.52;;;1.00;;
44048;SDS011;29717;47.028;15.470;2023-08-31T12:02:36;2.78;;;1.20;;
44048;SDS011;29717;47.028;15.470;2023-08-31T12:05:02;0.90;;;0.90;;
44048;SDS011;29717;47.028;15.470;2023-08-31T12:07:30;1.60;;;1.02;;
44048;SDS011;29717;47.028;15.470;2023-08-31T12:10:01;1.25;;;1.15;;
44048;SDS011;29717;47.028;15.470;2023-08-31T12:12:29;1.17;;;1.08;;
44048;SDS011;29717;47.028;15.470;2023-08-31T12:14:59;1.08;;;1.05;;
44048;SDS011;29717;47.028;15.470;2023-08-31T12:17:28;2.05;;;1.45;;
44048;SDS011;29717;47.028;15.470;2023-08-31T12:20:01;1.80;;;1.05;;
44048;SDS011;29717;47.028;15.470;2023-08-31T12:22:29;1.40;;;1.20;;
44048;SDS011;29717;47.028;15.470;2023-08-31T12:24:56;1.00;;;1.00;;
44048;SDS011;29717;47.028;15.470;2023-08-31T12:27:22;1.13;;;1.00;;
44048;SDS011;29717;47.028;15.470;2023-08-31T12:29:49;3.13;;;1.15;;
44048;SDS011;29717;47.028;15.470;2023-08-31T12:32:17;6.65;;;1.17;;
44048;SDS011;29717;47.028;15.470;2023-08-31T12:34:44;1.55;;;1.10;;
44048;SDS011;29717;47.028;15.470;2023-08-31T12:37:10;2.75;;;1.20;;
44048;SDS011;29717;47.028;15.470;2023-08-31T12:39:37;1.33;;;1.10;;
44048;SDS011;29717;47.028;15.470;2023-08-31T12:42:04;2.35;;;1.17;;
44048;SDS011;29717;47.028;15.470;2023-08-31T12:44:31;1.10;;;1.00;;
44048;SDS011;29717;47.028;15.470;2023-08-31T12:46:57;1.55;;;1.10;;
44048;SDS011;29717;47.028;15.470;2023-08-31T12:49:25;2.53;;;1.30;;
44048;SDS011;29717;47.028;15.470;2023-08-31T12:51:52;1.00;;;0.90;;
44048;SDS011;29717;47.028;15.470;2023-08-31T12:54:19;2.10;;;1.30;;
44048;SDS011;29717;47.028;15.470;2023-08-31T12:56:45;1.20;;;1.15;;
44048;SDS011;29717;47.028;15.470;2023-08-31T12:59:12;3.38;;;1.45;;
44048;SDS011;29717;47.028;15.470;2023-08-31T13:01:39;4.05;;;1.80;;
44048;SDS011;29717;47.028;15.470;2023-08-31T13:04:06;1.58;;;1.35;;
44048;SDS011;29717;47.028;15.470;2023-08-31T13:06:34;5.68;;;2.38;;
44048;SDS011;29717;47.028;15.470;2023-08-31T13:09:02;2.75;;;1.70;;
44048;SDS011;29717;47.028;15.470;2023-08-31T13:11:30;3.20;;;1.85;;
44048;SDS011;29717;47.028;15.470;2023-08-31T13:13:58;2.35;;;1.40;;
44048;SDS011;29717;47.028;15.470;2023-08-31T13:16:24;1.92;;;1.40;;
44048;SDS011;29717;47.028;15.470;2023-08-31T13:18:51;3.40;;;1.73;;
44048;SDS011;29717;47.028;15.470;2023-08-31T13:21:18;2.35;;;2.05;;
44048;SDS011;29717;47.028;15.470;2023-08-31T13:23:46;2.90;;;1.60;;
44048;SDS011;29717;47.028;15.470;2023-08-31T13:26:13;1.67;;;1.55;;
44048;SDS011;29717;47.028;15.470;2023-08-31T13:28:40;2.55;;;1.45;;
44048;SDS011;29717;47.028;15.470;2023-08-31T13:31:08;2.20;;;1.73;;
44048;SDS011;29717;47.028;15.470;2023-08-31T13:33:37;3.08;;;1.50;;
44048;SDS011;29717;47.028;15.470;2023-08-31T13:36:03;3.05;;;1.90;;
44048;SDS011;29717;47.028;15.470;2023-08-31T13:38:30;1.30;;;1.20;;
44048;SDS011;29717;47.028;15.470;2023-08-31T13:40:58;1.55;;;1.40;;
44048;SDS011;29717;47.028;15.470;2023-08-31T13:43:25;1.73;;;1.58;;
44048;SDS011;29717;47.028;15.470;2023-08-31T13:45:51;1.75;;;1.20;;
44048;SDS011;29717;47.028;15.470;2023-08-31T13:48:18;1.65;;;1.50;;
44048;SDS011;29717;47.028;15.470;2023-08-31T13:50:46;1.70;;;1.13;;
44048;SDS011;29717;47.028;15.470;2023-08-31T13:53:12;1.45;;;1.20;;
44048;SDS011;29717;47.028;15.470;2023-08-31T13:55:39;1.33;;;1.23;;
44048;SDS011;29717;47.028;15.470;2023-08-31T13:58:08;4.57;;;1.60;;
44048;SDS011;29717;47.028;15.470;2023-08-31T14:00:34;1.40;;;1.30;;
44048;SDS011;29717;47.028;15.470;2023-08-31T14:03:01;4.43;;;1.98;;
44048;SDS011;29717;47.028;15.470;2023-08-31T14:05:28;1.30;;;1.20;;
44048;SDS011;29717;47.028;15.470;2023-08-31T14:07:55;2.58;;;1.67;;
44048;SDS011;29717;47.028;15.470;2023-08-31T14:10:23;1.70;;;1.30;;
44048;SDS011;29717;47.028;15.470;2023-08-31T14:12:49;1.75;;;1.40;;
44048;SDS011;29717;47.028;15.470;2023-08-31T14:15:17;1.73;;;1.23;;
44048;SDS011;29717;47.028;15.470;2023-08-31T14:17:44;2.28;;;1.30;;
44048;SDS011;29717;47.028;15.470;2023-08-31T14:20:11;1.40;;;1.25;;
44048;SDS011;29717;47.028;15.470;2023-08-31T14:22:37;1.85;;;1.40;;
44048;SDS011;29717;47.028;15.470;2023-08-31T14:25:08;3.92;;;1.45;;
44048;SDS011;29717;47.028;15.470;2023-08-31T14:27:35;1.70;;;1.40;;
44048;SDS011;29717;47.028;15.470;2023-08-31T14:30:02;1.52;;;1.38;;
44048;SDS011;29717;47.028;15.470;2023-08-31T14:32:30;2.42;;;1.20;;
44048;SDS011;29717;47.028;15.470;2023-08-31T14:34:57;2.33;;;1.30;;